Time;durP1;ratioP1;P1;durP2;ratioP2;P2;SDS_P1;SDS_P2;PMS_P1;PMS_P2;Temp;Humidity;BMP_temperature;BMP_pressure;BME280_temperature;BME280_humidity;BME280_pressure;Samples;Min_cycle;Max_cycle;Signal;HPM_P1;HPM_P2
2024/03/21 00:00:59;;;;;;;56.88;33.67;;;;;;;30.09;71.50;101128.03;5029256;28;69597;-31
2024/03/21 00:03:28;;;;;;;62.25;33.78;;;;;;;30.12;71.53;101132.19;5031873;28;66374;-31
2024/03/21 00:05:57;;;;;;;56.58;36.33;;;;;;;30.14;72.62;101125.50;5008424;28;70842;-31
2024/03/21 00:08:26;;;;;;;60.67;36.63;;;;;;;30.19;71.85;101116.75;5044002;28;66937;-30
2024/03/21 00:10:55;;;;;;;51.75;34.63;;;;;;;30.20;72.80;101129.25;5016043;28;69938;-31
2024/03/21 00:13:24;;;;;;;56.78;33.97;;;;;;;30.20;72.66;101124.69;5044241;28;66700;-31
2024/03/21 00:15:53;;;;;;;68.38;35.67;;;;;;;30.15;72.62;101116.38;5030881;28;70162;-31
2024/03/21 00:18:24;;;;;;;59.85;33.97;;;;;;;30.23;72.64;101132.41;5038245;28;66735;-32
2024/03/21 00:20:53;;;;;;;55.67;34.30;;;;;;;30.26;72.81;101133.88;5029597;28;70229;-30
2024/03/21 00:23:21;;;;;;;62.53;34.70;;;;;;;30.27;72.92;101140.94;5021576;28;66196;-31
2024/03/21 00:25:50;;;;;;;53.92;34.03;;;;;;;30.28;72.12;101140.75;5030065;28;70129;-31
2024/03/21 00:28:19;;;;;;;50.20;32.88;;;;;;;30.30;72.46;101136.97;5035586;28;66690;-31
2024/03/21 00:30:54;;;;;;;57.22;34.13;;;;;;;30.32;72.43;101143.03;5039539;28;69997;-31
2024/03/21 00:33:24;;;;;;;55.28;34.03;;;;;;;30.28;72.29;101137.19;5041690;28;65786;-31
2024/03/21 00:35:52;;;;;;;50.65;33.97;;;;;;;30.35;71.88;101145.31;5046522;28;70458;-32
2024/03/21 00:38:21;;;;;;;50.30;33.20;;;;;;;30.35;72.04;101142.59;5046496;28;66321;-32
2024/03/21 00:40:50;;;;;;;57.55;33.08;;;;;;;30.37;71.75;101152.19;5027107;28;70293;-32
2024/03/21 00:43:22;;;;;;;50.10;33.13;;;;;;;30.40;71.33;101153.63;5047026;28;66439;-31
2024/03/21 00:45:51;;;;;;;50.53;32.70;;;;;;;30.38;71.39;101150.28;5032379;28;70660;-32
2024/03/21 00:48:19;;;;;;;53.17;32.55;;;;;;;30.42;71.09;101154.22;5028444;28;65604;-30
2024/03/21 00:50:48;;;;;;;51.45;32.55;;;;;;;30.43;71.45;101155.91;5027732;28;70505;-32
2024/03/21 00:53:17;;;;;;;45.70;31.48;;;;;;;30.44;71.49;101157.56;5033382;28;66554;-32
2024/03/21 00:55:46;;;;;;;42.55;30.15;;;;;;;30.46;70.90;101166.31;4993334;28;69971;-32
2024/03/21 00:58:15;;;;;;;45.53;30.38;;;;;;;30.48;70.92;101166.94;5026595;28;65308;-34
2024/03/21 01:00:44;;;;;;;45.08;30.40;;;;;;;30.49;71.05;101172.13;5040518;28;69250;-32
2024/03/21 01:03:13;;;;;;;44.33;30.75;;;;;;;30.48;70.92;101172.34;5035573;28;66681;-31
2024/03/21 01:05:43;;;;;;;50.55;31.20;;;;;;;30.53;70.71;101177.94;5024619;28;69761;-31
2024/03/21 01:08:12;;;;;;;45.42;30.42;;;;;;;30.55;70.96;101181.28;5018364;28;65554;-32
2024/03/21 01:10:50;;;;;;;48.63;31.17;;;;;;;30.20;72.10;101124.69;5016260;28;69815;-31
2024/03/21 01:13:20;;;;;;;46.55;30.83;;;;;;;30.59;70.78;101177.13;5030719;28;64116;-31
2024/03/21 01:15:49;;;;;;;43.08;30.73;;;;;;;30.59;71.13;101177.13;5023573;28;69926;-31
2024/03/21 01:18:18;;;;;;;49.97;30.27;;;;;;;30.61;70.82;101164.19;5014953;28;66816;-30
2024/03/21 01:20:47;;;;;;;46.50;30.77;;;;;;;30.63;70.98;101175.66;5019298;28;70239;-31
2024/03/21 01:23:16;;;;;;;45.78;30.45;;;;;;;30.66;70.72;101172.50;5021495;28;66210;-31
2024/03/21 01:25:44;;;;;;;49.08;30.33;;;;;;;30.68;70.41;101180.44;5027017;28;70014;-31
2024/03/21 01:28:13;;;;;;;40.47;29.25;;;;;;;30.68;70.43;101186.69;5010614;28;66438;-31
2024/03/21 01:30:42;;;;;;;37.72;28.80;;;;;;;30.71;70.90;101191.66;5035822;28;69681;-32
2024/03/21 01:33:11;;;;;;;44.00;30.27;;;;;;;30.71;70.79;101175.41;5027656;28;65330;-32
2024/03/21 01:35:40;;;;;;;41.00;29.13;;;;;;;30.75;70.69;101180.41;5021006;28;68767;-31
2024/03/21 01:38:10;;;;;;;44.38;28.73;;;;;;;30.76;70.69;101179.34;5035456;28;65400;-30
2024/03/21 01:40:39;;;;;;;38.03;28.45;;;;;;;30.75;70.80;101175.00;5034713;28;68137;-31
2024/03/21 01:43:26;;;;;;;40.40;28.85;;;;;;;30.76;71.26;101173.94;5031136;28;65453;-32
2024/03/21 01:46:14;;;;;;;39.78;29.38;;;;;;;30.80;71.08;101167.09;5037968;28;69882;-32
2024/03/21 01:48:50;;;;;;;36.45;28.00;;;;;;;30.68;71.44;101147.94;5055331;28;66342;-32
2024/03/21 01:51:23;;;;;;;41.50;28.08;;;;;;;30.80;70.60;101158.97;5027306;28;70223;-31
2024/03/21 01:53:52;;;;;;;;;;;;;;;30.80;71.14;101172.50;5025752;28;66206;-32
2024/03/21 01:56:22;;;;;;;35.97;26.05;;;;;;;30.94;70.25;101179.56;5029917;28;70180;-30
2024/03/21 01:58:51;;;;;;;36.60;27.00;;;;;;;30.96;69.93;101177.47;5039893;28;66252;-31
2024/03/21 02:01:25;;;;;;;36.20;25.67;;;;;;;30.85;70.69;101160.00;5021840;28;69269;-31
2024/03/21 02:03:56;;;;;;;34.55;26.33;;;;;;;31.01;70.09;101180.38;5023739;28;65245;-31
2024/03/21 02:06:28;;;;;;;36.70;26.17;;;;;;;31.03;70.53;101180.97;5032739;28;69613;-31
2024/03/21 02:08:58;;;;;;;34.63;26.92;;;;;;;30.82;69.83;101137.94;5024936;28;66437;-32
2024/03/21 02:11:27;;;;;;;30.38;25.67;;;;;;;31.09;70.24;101177.44;5007159;28;69794;-32
2024/03/21 02:13:57;;;;;;;36.05;26.05;;;;;;;31.12;70.06;101170.72;5024817;28;65418;-32
2024/03/21 02:16:25;;;;;;;35.35;25.77;;;;;;;31.14;70.13;101164.03;5030444;28;70325;-32
2024/03/21 02:18:54;;;;;;;42.67;26.30;;;;;;;31.19;69.97;101159.88;5034364;28;66185;-32
2024/03/21 02:24:11;;;;;;;36.00;25.27;;;;;;;31.25;69.59;101159.00;5027547;28;65830;-32
2024/03/21 02:26:40;;;;;;;37.92;26.67;;;;;;;31.27;69.43;101146.88;5019706;28;69205;-31
2024/03/21 02:29:09;;;;;;;30.58;25.55;;;;;;;31.31;69.85;101150.00;5019281;28;65718;-31
2024/03/21 02:31:38;;;;;;;29.65;25.08;;;;;;;31.32;69.36;101155.22;5031847;28;70421;-31
2024/03/21 02:34:07;;;;;;;30.58;25.25;;;;;;;31.37;69.63;101163.56;5018009;28;65372;-31
2024/03/21 02:36:35;;;;;;;33.28;25.13;;;;;;;31.39;69.72;101160.63;5028929;28;69978;-32
2024/03/21 02:39:05;;;;;;;30.30;25.00;;;;;;;31.44;69.37;101151.84;5028202;28;65647;-32
2024/03/21 02:41:34;;;;;;;38.03;25.05;;;;;;;31.47;69.63;101156.81;5020075;28;70707;-33
2024/03/21 02:44:03;;;;;;;29.58;23.58;;;;;;;31.46;69.47;101147.88;5029107;28;66730;-31
2024/03/21 02:46:32;;;;;;;33.22;25.88;;;;;;;31.54;69.31;101158.44;5051981;28;69726;-32
2024/03/21 02:49:01;;;;;;;31.73;24.90;;;;;;;31.57;69.27;101147.16;5021341;28;66133;-32
2024/03/21 02:51:30;;;;;;;36.22;24.50;;;;;;;31.60;69.24;101141.31;5039282;28;71907;-31
2024/03/21 02:53:59;;;;;;;33.53;25.08;;;;;;;31.64;68.95;101140.84;5020885;28;66426;-33
2024/03/21 02:56:30;;;;;;;30.63;24.95;;;;;;;31.55;69.04;101118.59;5045248;28;69236;-31
2024/03/21 02:59:02;;;;;;;30.20;25.00;;;;;;;31.72;69.20;101132.47;5014948;28;66178;-32
2024/03/21 03:01:31;;;;;;;;;;;;;;;31.67;69.48;101130.41;5047523;28;70831;-33
2024/03/21 03:03:59;;;;;;;26.70;23.65;;;;;;;31.79;68.89;101138.69;5025191;28;66831;-33
2024/03/21 03:06:29;;;;;;;28.48;24.25;;;;;;;31.83;69.01;101127.16;5016968;28;70927;-32
2024/03/21 03:08:58;;;;;;;27.52;24.02;;;;;;;31.72;68.92;101105.34;5035836;28;65968;-33
2024/03/21 03:11:27;;;;;;;34.00;24.02;;;;;;;31.89;68.85;101119.19;5019697;28;70037;-31
2024/03/21 03:13:57;;;;;;;30.40;23.40;;;;;;;31.82;68.87;101100.25;5017452;28;66637;-32
2024/03/21 03:16:26;;;;;;;27.90;23.63;;;;;;;31.87;68.76;101108.53;5049813;28;70395;-32
2024/03/21 03:18:54;;;;;;;26.02;22.88;;;;;;;31.96;68.67;101112.69;5036966;28;65993;-30
2024/03/21 03:21:23;;;;;;;27.90;23.02;;;;;;;31.96;68.31;101101.00;5042522;28;69657;-32
2024/03/21 03:23:52;;;;;;;27.50;23.33;;;;;;;32.02;68.91;101100.94;5045174;28;66039;-31
2024/03/21 03:26:21;;;;;;;32.83;23.60;;;;;;;32.05;68.59;101097.75;5043441;28;70305;-31
2024/03/21 03:28:50;;;;;;;25.70;23.00;;;;;;;32.09;68.55;101081.03;5038747;28;66155;-32
2024/03/21 03:31:19;;;;;;;31.02;23.50;;;;;;;32.10;68.42;101075.41;5035238;28;70263;-31
2024/03/21 03:36:35;;;;;;;26.70;23.17;;;;;;;32.17;68.58;101076.13;5047184;28;70152;-32
2024/03/21 03:39:04;;;;;;;26.65;23.10;;;;;;;32.20;68.41;101067.53;5031035;28;65918;-32
2024/03/21 03:41:33;;;;;;;28.15;24.10;;;;;;;32.23;68.40;101069.84;5029380;28;69326;-31
2024/03/21 03:44:02;;;;;;;28.60;22.42;;;;;;;32.26;68.22;101073.97;5044637;28;66639;-35
2024/03/21 03:46:31;;;;;;;30.67;24.42;;;;;;;32.30;68.49;101058.91;5029048;28;70008;-32
2024/03/21 03:49:00;;;;;;;25.98;22.70;;;;;;;32.34;68.16;101064.69;4995879;28;65446;-32
2024/03/21 03:51:47;;;;;;;29.17;23.27;;;;;;;32.32;68.37;101062.22;5014599;28;69512;-32
2024/03/21 03:54:16;;;;;;;28.40;22.95;;;;;;;32.36;68.00;101047.13;5022272;28;66382;-31
2024/03/21 03:56:45;;;;;;;25.92;21.90;;;;;;;32.37;68.47;101048.78;5019860;28;69211;-35
2024/03/21 03:59:14;;;;;;;28.52;23.23;;;;;;;32.40;68.29;101053.78;5044273;28;66552;-32
2024/03/21 04:01:45;;;;;;;26.27;22.83;;;;;;;32.43;68.39;101044.31;5028617;28;70144;-32
2024/03/21 04:04:15;;;;;;;27.60;23.38;;;;;;;32.42;68.19;101046.22;5015033;28;65170;-33
2024/03/21 04:06:44;;;;;;;25.77;22.20;;;;;;;32.42;68.32;101029.94;5022037;28;70182;-36
2024/03/21 04:09:13;;;;;;;30.67;23.55;;;;;;;32.52;68.25;101028.63;5025734;28;65654;-32
2024/03/21 04:11:42;;;;;;;29.00;23.02;;;;;;;32.54;68.26;101032.75;5029111;28;70035;-32
2024/03/21 04:14:11;;;;;;;26.40;23.35;;;;;;;32.58;68.20;101027.69;5029260;28;66341;-36
2024/03/21 04:16:40;;;;;;;27.55;23.48;;;;;;;32.61;68.21;101028.06;5028948;28;70269;-32
2024/03/21 04:19:09;;;;;;;28.55;23.70;;;;;;;32.62;68.10;101018.84;5026218;28;65712;-31
2024/03/21 04:21:37;;;;;;;30.33;23.80;;;;;;;32.65;68.18;101014.84;5026297;28;69867;-33
2024/03/21 04:24:07;;;;;;;25.30;22.60;;;;;;;32.69;68.15;101013.34;5028844;28;65468;-32
2024/03/21 04:26:35;;;;;;;25.33;22.30;;;;;;;32.72;68.13;101007.44;5014145;28;70234;-33
2024/03/21 04:29:07;;;;;;;25.75;23.05;;;;;;;32.74;68.16;101002.63;5011318;28;66541;-32
2024/03/21 04:31:36;;;;;;;28.63;23.75;;;;;;;32.79;68.35;100991.91;5047712;28;69558;-31
2024/03/21 04:34:05;;;;;;;31.23;23.23;;;;;;;32.84;67.96;100997.44;5025612;28;65663;-32
2024/03/21 04:36:34;;;;;;;32.95;23.98;;;;;;;32.86;67.96;100986.34;5028082;28;70490;-33
2024/03/21 04:39:03;;;;;;;35.15;24.48;;;;;;;32.85;67.91;100974.66;5022427;28;66496;-32
2024/03/21 04:41:32;;;;;;;29.00;25.25;;;;;;;32.82;67.98;100958.81;5014537;28;69314;-32
2024/03/21 04:44:00;;;;;;;29.50;24.48;;;;;;;32.97;67.78;100971.16;5038295;28;66323;-31
2024/03/21 04:46:29;;;;;;;35.15;26.00;;;;;;;32.94;67.75;100967.00;5033294;28;69535;-31
2024/03/21 04:48:58;;;;;;;29.70;24.35;;;;;;;32.99;67.89;100971.72;5053211;28;66226;-31
2024/03/21 04:51:27;;;;;;;33.90;26.13;;;;;;;32.93;67.90;100955.31;5048508;28;70144;-32
2024/03/21 04:53:56;;;;;;;31.88;24.30;;;;;;;33.06;67.72;100964.34;5025948;28;66689;-32
2024/03/21 04:56:25;;;;;;;32.38;24.75;;;;;;;33.04;67.76;100944.72;5031912;28;70342;-31
2024/03/21 04:58:54;;;;;;;27.77;23.73;;;;;;;33.12;67.52;100947.91;5011330;28;66636;-32
2024/03/21 05:01:24;;;;;;;29.90;25.73;;;;;;;33.15;67.63;100952.06;5026295;28;70423;-32
2024/03/21 05:03:53;;;;;;;27.52;24.55;;;;;;;33.18;67.68;100945.31;5024890;28;66195;-32
2024/03/21 05:06:22;;;;;;;29.45;23.70;;;;;;;33.15;67.40;100935.75;5019909;28;70239;-33
2024/03/21 05:08:51;;;;;;;32.30;25.45;;;;;;;33.22;67.32;100939.19;5022195;28;66226;-32
2024/03/21 05:11:20;;;;;;;35.40;24.83;;;;;;;33.26;67.45;100931.38;5024069;28;69132;-33
2024/03/21 05:13:50;;;;;;;29.02;24.20;;;;;;;33.28;67.29;100930.09;5019861;28;66113;-31
2024/03/21 05:16:19;;;;;;;28.67;25.55;;;;;;;33.32;67.55;100928.56;5009178;28;70480;-33
2024/03/21 05:18:48;;;;;;;31.20;24.40;;;;;;;33.33;67.49;100905.75;5045913;28;65495;-32
2024/03/21 05:21:17;;;;;;;29.35;25.20;;;;;;;33.36;67.40;100913.44;5020921;28;69769;-33
2024/03/21 05:23:46;;;;;;;31.30;24.67;;;;;;;33.42;67.14;100902.66;5033341;28;65872;-33
2024/03/21 05:26:15;;;;;;;27.52;24.40;;;;;;;33.46;67.19;100898.41;5000372;28;69762;-33
2024/03/21 05:28:46;;;;;;;30.80;25.08;;;;;;;33.48;67.47;100893.56;5022374;28;65762;-32
2024/03/21 05:31:23;;;;;;;29.40;25.53;;;;;;;33.49;66.75;100887.91;5000584;28;69703;-32
2024/03/21 05:33:53;;;;;;;29.20;25.13;;;;;;;33.55;67.09;100880.72;5017473;28;66136;-35
2024/03/21 05:36:23;;;;;;;31.40;24.88;;;;;;;33.54;67.30;100869.00;5019356;28;70103;-34
2024/03/21 05:38:53;;;;;;;32.70;24.65;;;;;;;33.63;67.08;100874.06;5020809;28;66380;-34
2024/03/21 05:41:22;;;;;;;27.13;24.05;;;;;;;33.62;67.17;100865.06;5021101;28;70216;-31
2024/03/21 05:43:51;;;;;;;31.92;24.92;;;;;;;33.66;67.08;100855.38;5019354;28;65649;-33
2024/03/21 05:46:26;;;;;;;28.02;24.35;;;;;;;33.67;66.83;100848.03;5024286;28;70222;-33
2024/03/21 05:48:56;;;;;;;31.02;23.67;;;;;;;33.69;66.74;100837.75;5012578;28;66536;-32
2024/03/21 05:51:25;;;;;;;28.88;24.42;;;;;;;33.68;66.69;100831.47;5040686;28;70374;-32
2024/03/21 05:53:54;;;;;;;28.95;24.90;;;;;;;33.73;66.68;100823.41;5029112;28;65832;-34
2024/03/21 05:56:22;;;;;;;29.42;25.13;;;;;;;33.74;66.77;100824.22;5026969;28;70015;-37
2024/03/21 05:58:51;;;;;;;30.00;24.45;;;;;;;33.79;66.49;100822.47;5021570;28;67178;-31
2024/03/21 06:01:23;;;;;;;30.40;24.05;;;;;;;33.78;66.72;100809.91;5024615;28;70535;-32
2024/03/21 06:03:52;;;;;;;32.15;25.35;;;;;;;33.84;66.71;100812.75;5022585;28;66018;-32
2024/03/21 06:06:21;;;;;;;28.95;24.25;;;;;;;33.86;66.46;100799.72;5023335;28;70534;-33
2024/03/21 06:08:50;;;;;;;32.13;24.83;;;;;;;33.87;66.50;100793.19;5039137;28;66343;-32
2024/03/21 06:11:19;;;;;;;29.02;25.38;;;;;;;33.91;66.50;100786.22;5016590;28;69714;-32
2024/03/21 06:13:50;;;;;;;32.05;24.15;;;;;;;33.94;66.29;100786.56;5013415;28;65396;-32
2024/03/21 06:16:19;;;;;;;34.92;24.98;;;;;;;33.96;66.28;100775.41;5008342;28;70481;-33
2024/03/21 06:18:48;;;;;;;27.15;22.98;;;;;;;34.00;66.35;100773.88;5021290;28;66340;-33
2024/03/21 06:21:17;;;;;;;30.48;23.73;;;;;;;34.01;66.32;100764.63;5003360;28;69878;-33
2024/03/21 06:23:46;;;;;;;29.45;23.35;;;;;;;34.06;66.69;100753.84;5034354;28;65827;-32
2024/03/21 06:26:16;;;;;;;30.75;24.90;;;;;;;34.06;66.08;100748.41;5022701;28;69234;-32
2024/03/21 06:28:45;;;;;;;27.42;24.42;;;;;;;34.07;66.33;100744.63;5030029;28;66835;-31
2024/03/21 06:31:14;;;;;;;28.10;23.63;;;;;;;34.14;66.14;100741.75;5019573;28;69795;-33
2024/03/21 06:33:43;;;;;;;27.17;24.25;;;;;;;34.12;66.14;100728.38;5048984;28;66724;-33
2024/03/21 06:36:12;;;;;;;27.10;24.35;;;;;;;34.15;66.31;100719.72;5017471;28;69777;-32
2024/03/21 06:38:40;;;;;;;27.25;23.48;;;;;;;34.21;66.17;100732.34;5021056;28;66173;-31
2024/03/21 06:41:09;;;;;;;27.08;24.25;;;;;;;34.23;65.83;100722.03;5020158;28;69496;-32
2024/03/21 06:43:38;;;;;;;34.90;24.70;;;;;;;34.26;66.20;100713.34;5019742;28;66807;-32
2024/03/21 06:46:07;;;;;;;26.55;23.83;;;;;;;34.31;65.91;100714.53;5020285;28;70156;-32
2024/03/21 06:48:37;;;;;;;27.50;24.25;;;;;;;34.28;65.67;100704.13;5008165;28;65348;-31
2024/03/21 06:51:09;;;;;;;26.85;23.58;;;;;;;34.33;66.02;100696.06;5017962;28;70012;-32
2024/03/21 06:53:38;;;;;;;24.23;21.92;;;;;;;34.37;65.68;100692.56;5051772;28;65507;-32
2024/03/21 06:56:07;;;;;;;32.75;23.67;;;;;;;34.38;65.86;100693.38;5055158;28;69559;-32
2024/03/21 06:58:36;;;;;;;28.67;23.30;;;;;;;34.44;65.82;100684.25;5023653;28;66364;-32
2024/03/21 07:01:05;;;;;;;28.35;24.15;;;;;;;34.48;65.76;100688.09;5031892;28;70360;-32
2024/03/21 07:03:34;;;;;;;29.15;24.13;;;;;;;34.50;66.13;100680.53;5054442;28;66090;-34
2024/03/21 07:06:03;;;;;;;27.20;22.83;;;;;;;34.43;65.78;100658.88;5038055;28;70218;-32
2024/03/21 07:08:32;;;;;;;26.55;22.40;;;;;;;34.57;65.67;100674.91;5006734;28;66247;-31
2024/03/21 07:11:01;;;;;;;25.38;22.50;;;;;;;34.59;65.96;100676.31;5046334;28;70662;-33
2024/03/21 07:13:31;;;;;;;27.48;22.63;;;;;;;34.62;66.04;100664.91;5022137;28;66090;-33
2024/03/21 07:15:59;;;;;;;27.08;22.23;;;;;;;34.66;66.09;100668.81;5031372;28;69907;-34
2024/03/21 07:18:28;;;;;;;25.88;22.20;;;;;;;34.67;65.71;100658.72;5036850;28;65745;-31
2024/03/21 07:20:58;;;;;;;25.75;22.38;;;;;;;34.71;65.55;100648.94;5037752;28;70268;-32
2024/03/21 07:23:27;;;;;;;28.98;22.80;;;;;;;34.75;66.11;100643.84;5036391;28;66350;-33
2024/03/21 07:25:56;;;;;;;23.83;21.35;;;;;;;34.78;65.80;100649.59;5020786;28;69228;-33
2024/03/21 07:28:25;;;;;;;25.85;21.80;;;;;;;34.84;65.65;100653.22;5037816;28;66072;-33
2024/03/21 07:30:55;;;;;;;23.42;21.10;;;;;;;34.83;65.82;100640.69;5010187;28;70090;-32
2024/03/21 07:33:24;;;;;;;24.27;21.70;;;;;;;34.91;65.27;100632.06;5019020;28;65534;-32
2024/03/21 07:35:57;;;;;;;23.98;21.42;;;;;;;34.93;65.18;100635.34;5033137;28;70509;-32
2024/03/21 07:38:26;;;;;;;22.45;20.27;;;;;;;34.98;65.22;100627.22;5018493;28;65934;-32
2024/03/21 07:40:57;;;;;;;28.55;21.90;;;;;;;34.95;65.70;100621.47;5029557;28;70160;-33
2024/03/21 07:43:26;;;;;;;25.15;21.45;;;;;;;35.04;65.29;100620.75;5033938;28;65996;-32
2024/03/21 07:45:55;;;;;;;26.20;20.02;;;;;;;35.09;65.02;100620.84;5016751;28;69928;-32
2024/03/21 07:48:24;;;;;;;24.20;20.75;;;;;;;35.12;65.42;100614.88;5019795;28;66166;-33
2024/03/21 07:50:53;;;;;;;23.35;20.95;;;;;;;35.19;65.47;100619.31;4994369;28;69580;-32
2024/03/21 07:53:22;;;;;;;22.95;20.55;;;;;;;35.23;65.14;100613.09;5022621;28;66788;-33
2024/03/21 07:55:51;;;;;;;24.38;20.92;;;;;;;35.26;65.35;100600.84;5013815;28;70130;-33
2024/03/21 07:58:20;;;;;;;24.15;19.98;;;;;;;35.32;64.99;100605.28;5040844;28;66790;-33
2024/03/21 08:00:49;;;;;;;23.52;20.15;;;;;;;35.32;65.13;100594.38;5045621;28;69847;-37
2024/03/21 08:03:18;;;;;;;24.63;20.60;;;;;;;35.42;64.79;100599.94;5033211;28;65577;-33
2024/03/21 08:05:47;;;;;;;23.20;19.88;;;;;;;35.47;64.40;100599.97;5040689;28;70428;-33
2024/03/21 08:08:17;;;;;;;22.73;19.60;;;;;;;35.50;64.90;100594.00;5021937;28;66838;-32
2024/03/21 08:10:46;;;;;;;25.45;19.13;;;;;;;35.54;65.27;100592.38;5024042;28;70193;-32
2024/03/21 08:13:15;;;;;;;21.70;19.52;;;;;;;35.59;65.07;100588.91;5037593;28;65996;-33
2024/03/21 08:15:45;;;;;;;25.35;19.42;;;;;;;35.62;64.95;100582.13;5016685;28;70207;-32
2024/03/21 08:18:14;;;;;;;21.55;18.95;;;;;;;35.69;64.62;100578.09;5035813;28;66068;-33
2024/03/21 08:20:46;;;;;;;20.92;18.92;;;;;;;35.60;64.63;100559.72;5018793;28;70276;-32
2024/03/21 08:23:16;;;;;;;22.25;19.10;;;;;;;35.81;64.95;100591.56;5033254;28;65308;-32
2024/03/21 08:25:45;;;;;;;26.58;18.67;;;;;;;35.82;64.86;100579.56;4990399;28;69600;-32
2024/03/21 08:28:14;;;;;;;23.20;18.40;;;;;;;35.87;64.46;100579.59;5008688;28;66697;-33
2024/03/21 08:30:46;;;;;;;21.02;18.08;;;;;;;35.94;64.90;100573.91;5031110;28;70139;-33
2024/03/21 08:33:15;;;;;;;19.35;17.25;;;;;;;35.98;64.53;100583.22;5029053;28;66123;-35
2024/03/21 08:35:44;;;;;;;25.65;18.70;;;;;;;35.92;64.91;100560.53;5033220;28;70501;-34
2024/03/21 08:38:13;;;;;;;23.00;17.58;;;;;;;36.09;64.81;100575.97;5011075;28;66191;-34
2024/03/21 08:40:52;;;;;;;23.05;17.02;;;;;;;36.12;64.04;100580.88;5031470;28;69984;-33
2024/03/21 08:43:22;;;;;;;20.23;17.13;;;;;;;36.21;64.73;100584.75;5024902;28;65738;-33
2024/03/21 08:45:53;;;;;;;19.05;17.00;;;;;;;36.13;64.38;100566.13;5026744;28;69995;-34
2024/03/21 08:48:22;;;;;;;;;;;;;;;36.18;64.05;100580.66;5018716;28;66317;-32
2024/03/21 08:50:51;;;;;;;19.20;16.38;;;;;;;36.32;64.74;100581.00;5000059;28;70134;-31
2024/03/21 08:53:20;;;;;;;19.27;16.58;;;;;;;36.40;64.23;100587.88;5009214;28;66547;-33
2024/03/21 08:55:52;;;;;;;20.67;16.50;;;;;;;36.43;64.85;100592.81;4995103;28;70495;-32
2024/03/21 08:58:22;;;;;;;17.95;16.20;;;;;;;36.49;64.23;100601.84;5012558;28;66582;-32
2024/03/21 09:00:51;;;;;;;20.08;16.20;;;;;;;36.49;64.19;100597.19;5015366;28;69594;-32
2024/03/21 09:03:20;;;;;;;19.30;16.35;;;;;;;36.55;64.21;100600.81;5019720;28;66571;-33
2024/03/21 09:05:49;;;;;;;15.82;14.38;;;;;;;36.59;64.81;100599.22;5026671;28;70539;-32
2024/03/21 09:08:18;;;;;;;20.70;16.08;;;;;;;36.63;64.72;100603.03;5025742;28;65033;-32
2024/03/21 09:10:47;;;;;;;17.50;15.65;;;;;;;36.66;64.99;100603.34;5030205;28;69735;-33
2024/03/21 09:13:16;;;;;;;19.58;15.77;;;;;;;36.76;64.98;100608.00;5016693;28;65589;-34
2024/03/21 09:15:45;;;;;;;20.73;15.60;;;;;;;36.77;64.87;100601.44;5032437;28;69680;-33
2024/03/21 09:18:14;;;;;;;21.77;15.65;;;;;;;36.81;65.13;100605.31;5032216;28;66758;-33
2024/03/21 09:20:47;;;;;;;17.67;15.77;;;;;;;36.86;65.03;100610.81;5036696;28;70272;-34
2024/03/21 09:23:16;;;;;;;18.08;15.52;;;;;;;36.90;64.67;100611.91;5016309;28;66264;-34
2024/03/21 09:25:45;;;;;;;24.02;15.02;;;;;;;36.85;65.60;100617.34;5009136;28;69790;-35
2024/03/21 09:28:14;;;;;;;32.65;15.52;;;;;;;36.93;65.67;100616.00;5030870;28;66123;-34
2024/03/21 09:30:44;;;;;;;22.67;14.40;;;;;;;36.91;66.63;100616.25;5018259;28;70246;-33
2024/03/21 09:33:14;;;;;;;22.50;13.93;;;;;;;36.99;66.63;100630.50;5030770;28;65773;-32
2024/03/21 09:35:43;;;;;;;25.90;15.20;;;;;;;36.93;66.27;100634.31;5044323;28;69610;-32
2024/03/21 09:38:12;;;;;;;20.33;14.85;;;;;;;36.83;66.08;100629.63;5034086;28;65723;-32
2024/03/21 09:40:41;;;;;;;22.17;13.93;;;;;;;36.93;66.42;100634.31;5025042;28;70237;-34
2024/03/21 09:43:13;;;;;;;18.80;14.63;;;;;;;36.95;66.23;100632.97;5039414;28;66691;-32
2024/03/21 09:45:46;;;;;;;21.65;15.38;;;;;;;36.94;66.31;100642.25;5015437;28;70483;-31
2024/03/21 09:48:16;;;;;;;19.83;13.57;;;;;;;36.99;65.82;100638.72;5031585;28;66118;-33
2024/03/21 09:50:46;;;;;;;22.08;13.60;;;;;;;36.97;65.98;100646.34;5035245;28;69654;-31
2024/03/21 09:53:16;;;;;;;30.65;14.27;;;;;;;36.95;66.21;100643.91;5034965;28;66289;-33
2024/03/21 09:55:46;;;;;;;22.33;14.02;;;;;;;36.93;65.90;100643.34;5028239;28;69034;-33
2024/03/21 09:58:16;;;;;;;25.75;13.25;;;;;;;36.95;65.68;100649.38;5031244;28;65619;-34
2024/03/21 10:00:45;;;;;;;22.48;13.68;;;;;;;36.93;66.42;100650.72;5022374;28;70050;-33
2024/03/21 10:03:15;;;;;;;25.35;14.05;;;;;;;36.95;66.47;100659.50;5016201;28;66779;-32
2024/03/21 10:05:45;;;;;;;24.92;14.57;;;;;;;36.95;65.92;100659.50;5022949;28;69530;-31
2024/03/21 10:08:17;;;;;;;17.50;13.88;;;;;;;36.90;65.79;100658.38;5025145;28;67079;-34
2024/03/21 10:10:46;;;;;;;19.17;13.63;;;;;;;36.94;65.66;100658.66;5029957;28;70127;-32
2024/03/21 10:13:15;;;;;;;26.98;13.80;;;;;;;36.98;65.82;100669.91;5013950;28;66242;-32
2024/03/21 10:15:44;;;;;;;21.10;13.85;;;;;;;36.95;65.80;100673.16;5024368;28;71043;-31
2024/03/21 10:18:14;;;;;;;18.73;13.07;;;;;;;36.82;65.76;100658.88;5024912;28;65521;-32
2024/03/21 10:20:44;;;;;;;19.63;12.90;;;;;;;36.85;66.23;100682.13;5028961;28;69912;-32
2024/03/21 10:23:21;;;;;;;21.33;13.68;;;;;;;36.85;66.29;100691.16;5016189;28;66265;-31
2024/03/21 10:25:50;;;;;;;16.17;13.15;;;;;;;36.85;65.98;100688.41;5045713;28;70103;-33
2024/03/21 10:28:19;;;;;;;20.58;13.45;;;;;;;36.85;66.42;100688.41;5021928;28;66897;-32
2024/03/21 10:30:49;;;;;;;20.23;13.00;;;;;;;36.81;66.38;100681.03;5030441;28;68971;-32
2024/03/21 10:33:19;;;;;;;23.27;13.38;;;;;;;36.84;66.38;100697.72;5031669;28;65539;-32
2024/03/21 10:35:48;;;;;;;18.02;13.10;;;;;;;36.79;66.17;100700.41;5006169;28;70005;-31
2024/03/21 10:38:17;;;;;;;23.13;13.65;;;;;;;36.71;66.33;100692.72;5028875;28;66478;-32
2024/03/21 10:40:55;;;;;;;21.77;12.98;;;;;;;36.45;66.39;100665.22;5022266;28;69899;-32
2024/03/21 10:43:27;;;;;;;19.23;12.98;;;;;;;36.66;66.34;100685.31;5026390;28;66648;-31
2024/03/21 10:45:57;;;;;;;26.40;14.05;;;;;;;36.63;66.06;100695.94;5038191;28;70394;-32
2024/03/21 10:48:32;;;;;;;22.00;13.02;;;;;;;36.66;66.33;100707.19;5021722;28;66325;-32
2024/03/21 10:51:12;;;;;;;20.90;13.60;;;;;;;36.59;66.95;100705.78;5003227;28;68409;-32
2024/03/21 10:53:56;;;;;;;19.88;12.68;;;;;;;36.39;66.53;100674.47;5016997;28;65904;-34
2024/03/21 10:56:42;;;;;;;26.73;13.70;;;;;;;36.60;66.41;100707.41;5005468;28;69825;-32
2024/03/21 10:59:16;;;;;;;24.85;13.30;;;;;;;36.56;66.46;100717.22;5019131;28;65653;-32
2024/03/21 11:01:47;;;;;;;24.50;13.40;;;;;;;36.50;66.11;100718.22;5023482;28;70512;-32
2024/03/21 11:04:16;;;;;;;19.45;12.85;;;;;;;36.46;66.29;100735.16;5034526;28;65303;-34
2024/03/21 11:06:46;;;;;;;29.83;13.40;;;;;;;36.37;67.05;100735.91;5023908;28;70190;-32
2024/03/21 11:09:16;;;;;;;22.02;13.35;;;;;;;36.35;66.66;100738.88;5022256;28;66521;-32
2024/03/21 11:11:45;;;;;;;22.13;13.73;;;;;;;36.31;66.93;100748.69;5025145;28;69523;-32
2024/03/21 11:14:15;;;;;;;21.52;13.05;;;;;;;36.31;67.43;100748.69;5022877;28;65735;-31
2024/03/21 11:16:44;;;;;;;23.92;13.32;;;;;;;36.28;67.35;100738.31;5023153;28;69435;-34
2024/03/21 11:19:14;;;;;;;26.63;13.85;;;;;;;36.18;67.45;100749.13;5025268;28;66522;-32
2024/03/21 11:21:44;;;;;;;27.25;13.25;;;;;;;36.15;68.02;100750.47;5022122;28;69785;-32
2024/03/21 11:24:15;;;;;;;23.70;13.27;;;;;;;35.97;67.23;100726.28;5024379;28;67252;-32
2024/03/21 11:26:45;;;;;;;19.50;12.95;;;;;;;36.15;67.24;100761.38;5053632;28;70196;-32